Terminal Aerodrome Forecast
Issued by NWS Boston, MA

Home | Current Version | Previous Version | Text Only | Print | Product List | Glossary On
Versions: 1 2 3 4 5 6 7 8 9 10 11 12 13 14 15 16 17 18 19 20 21 22 23 24 25 26 27 28 29 30 31 32 33 34 35 36 37 38 39 40 41
000
FTUS41 KBOX 270528
TAFPVD
TAF
KPVD 270528Z 2706/2806 20009KT P6SM BKN120
     FM271000 20010KT P6SM SCT008 BKN250
     FM271200 21011KT P6SM BKN015 BKN250
     FM271500 20013KT P6SM BKN050
     FM271700 20016KT P6SM SCT050
     FM272100 21018KT P6SM BKN025
     FM280000 21016KT 5SM BR BKN015=

USA.gov is the U.S. government's official web portal to all federal, state and local government web resources and services.